Time;durP1;ratioP1;P1;durP2;ratioP2;P2;SDS_P1;SDS_P2;PMS_P1;PMS_P2;Temp;Humidity;BMP_temperature;BMP_pressure;BME280_temperature;BME280_humidity;BME280_pressure;Samples;Min_cycle;Max_cycle;Signal;HPM_P1;HPM_P2
2021/12/26 00:00:24;;;;;;;;;0.20;0.00;;;;;-2.27;75.33;99168.91;5090184;28;8818;-57
2021/12/26 00:02:52;;;;;;;;;1.00;1.00;;;;;-2.28;75.06;99166.38;5091015;28;8849;-56
2021/12/26 00:05:19;;;;;;;;;0.40;0.40;;;;;-2.27;75.58;99174.13;5089096;28;8968;-57
2021/12/26 00:07:47;;;;;;;;;0.00;0.00;;;;;-2.26;75.32;99169.75;5090040;28;8842;-57
2021/12/26 00:10:15;;;;;;;;;0.80;0.80;;;;;-2.24;75.41;99168.81;5089740;28;8826;-56
2021/12/26 00:12:43;;;;;;;;;4.00;4.00;;;;;-2.21;75.75;99168.66;5089363;28;8857;-57
2021/12/26 00:15:10;;;;;;;;;0.00;0.00;;;;;-2.19;75.52;99171.22;5089042;28;8822;-56
2021/12/26 00:17:38;;;;;;;;;1.00;1.00;;;;;-2.18;75.44;99159.88;5089124;28;8840;-56
2021/12/26 00:20:06;;;;;;;;;1.00;1.00;;;;;-2.16;75.12;99163.25;5088781;28;8849;-57
2021/12/26 00:22:34;;;;;;;;;0.60;0.60;;;;;-2.14;75.23;99162.28;5089933;28;9492;-56
2021/12/26 00:25:02;;;;;;;;;0.00;0.00;;;;;-2.08;75.54;99158.56;5087641;28;8846;-57
2021/12/26 00:27:30;;;;;;;;;1.00;1.00;;;;;-2.04;75.26;99157.53;5089654;28;8840;-57
2021/12/26 00:29:57;;;;;;;;;0.00;0.00;;;;;-1.95;75.21;99154.53;5089949;28;8869;-57
2021/12/26 00:32:25;;;;;;;;;0.00;0.00;;;;;-1.92;74.95;99149.19;5089925;28;8849;-56
2021/12/26 00:34:53;;;;;;;;;1.00;1.00;;;;;-1.86;75.29;99149.78;5089741;28;8846;-57
2021/12/26 00:37:21;;;;;;;;;0.00;0.00;;;;;-1.80;75.05;99151.28;5089107;28;8872;-57
2021/12/26 00:39:48;;;;;;;;;1.40;0.40;;;;;-1.75;75.00;99146.72;5088314;28;8920;-57
2021/12/26 00:42:16;;;;;;;;;3.00;1.00;;;;;-1.74;75.52;99144.03;5088584;28;8946;-56
2021/12/26 00:44:44;;;;;;;;;1.00;1.00;;;;;-1.68;75.30;99148.16;5087851;28;8858;-57
2021/12/26 00:47:11;;;;;;;;;0.00;0.00;;;;;-1.66;75.17;99144.53;5089003;28;9130;-57
2021/12/26 00:49:39;;;;;;;;;0.60;0.60;;;;;-1.62;74.68;99148.72;5087871;28;8841;-57
2021/12/26 00:52:07;;;;;;;;;0.00;0.00;;;;;-1.56;74.84;99139.78;5087710;28;8846;-57
2021/12/26 00:54:35;;;;;;;;;1.00;1.00;;;;;-1.50;75.06;99142.97;5088449;28;8844;-57
2021/12/26 00:57:02;;;;;;;;;1.00;1.00;;;;;-1.42;74.85;99142.63;5087863;28;8846;-56
2021/12/26 00:59:30;;;;;;;;;0.80;0.80;;;;;-1.38;74.75;99131.16;5087945;28;8842;-57
2021/12/26 01:01:58;;;;;;;;;1.00;1.00;;;;;-1.34;74.50;99132.69;5086992;28;8834;-56
2021/12/26 01:04:26;;;;;;;;;0.60;0.60;;;;;-1.29;74.84;99126.34;5086853;28;8877;-57
2021/12/26 01:06:53;;;;;;;;;1.00;1.00;;;;;-1.28;74.84;99121.97;5085896;28;8849;-57
2021/12/26 01:09:25;;;;;;;;;1.00;1.00;;;;;-1.28;75.03;99127.19;5086474;28;8931;-57
2021/12/26 01:11:56;;;;;;;;;2.60;2.60;;;;;-1.30;75.13;99135.09;5089633;28;8845;-57
2021/12/26 01:14:27;;;;;;;;;0.20;0.20;;;;;-1.34;74.96;99120.50;5092431;28;8838;-57
2021/12/26 01:17:03;;;;;;;;;0.00;0.00;;;;;-1.34;75.33;99127.47;5090179;28;8822;-56
2021/12/26 01:19:39;;;;;;;;;0.80;0.80;;;;;-1.38;75.26;99121.53;5092114;28;8862;-57
2021/12/26 01:22:06;;;;;;;;;1.00;1.00;;;;;-1.40;74.82;99117.28;5092426;28;8876;-56
2021/12/26 01:24:34;;;;;;;;;1.00;1.00;;;;;-1.42;75.54;99113.91;5090704;28;8838;-57
2021/12/26 01:27:03;;;;;;;;;0.60;0.60;;;;;-1.42;75.26;99108.69;5093097;28;8976;-56
2021/12/26 01:29:30;;;;;;;;;1.20;0.60;;;;;-1.42;75.44;99116.53;5090016;28;8838;-57
2021/12/26 01:31:58;;;;;;;;;3.00;3.00;;;;;-1.44;75.34;99115.75;5089230;28;8817;-57
2021/12/26 01:34:26;;;;;;;;;1.40;0.60;;;;;-1.44;75.39;99115.75;5090605;28;8834;-57
2021/12/26 01:36:53;;;;;;;;;0.00;0.00;;;;;-1.45;75.72;99109.66;5090157;28;8840;-57
2021/12/26 01:39:21;;;;;;;;;3.00;1.40;;;;;-1.43;75.10;99107.00;5091296;28;8822;-56
2021/12/26 01:41:49;;;;;;;;;0.00;0.00;;;;;-1.42;75.68;99106.09;5090233;28;8853;-56
2021/12/26 01:44:17;;;;;;;;;0.00;0.00;;;;;-1.41;75.59;99102.56;5090186;28;8877;-56
2021/12/26 01:46:44;;;;;;;;;1.00;1.00;;;;;-1.39;75.82;99108.53;5089576;28;8846;-57
2021/12/26 01:49:12;;;;;;;;;0.00;0.00;;;;;-1.34;75.76;99102.22;5091991;28;8826;-56
2021/12/26 01:51:40;;;;;;;;;0.00;0.00;;;;;-1.26;75.23;99099.25;5090953;28;8853;-56
2021/12/26 01:54:09;;;;;;;;;1.80;0.60;;;;;-1.21;75.44;99095.50;5090569;28;8856;-57
2021/12/26 01:56:38;;;;;;;;;1.00;1.00;;;;;-1.17;75.80;99091.84;5090368;28;8850;-57
2021/12/26 01:59:05;;;;;;;;;1.00;1.00;;;;;-1.14;75.39;99094.31;5090622;28;8854;-56
2021/12/26 02:01:33;;;;;;;;;0.00;0.00;;;;;-1.12;75.13;99100.31;5090027;28;8838;-57
2021/12/26 02:04:01;;;;;;;;;0.60;0.60;;;;;-1.12;75.49;99095.09;5090582;28;8819;-57
2021/12/26 02:06:29;;;;;;;;;1.00;1.00;;;;;-1.14;74.75;99093.47;5089529;28;8834;-57
2021/12/26 02:08:56;;;;;;;;;0.00;0.00;;;;;-1.18;75.43;99089.28;5091204;28;8842;-57
2021/12/26 02:11:24;;;;;;;;;0.80;0.80;;;;;-1.22;75.08;99095.59;5088839;28;8836;-57
2021/12/26 02:13:52;;;;;;;;;1.00;1.00;;;;;-1.26;75.48;99087.06;5091130;28;8826;-57
2021/12/26 02:16:19;;;;;;;;;0.40;0.40;;;;;-1.29;75.76;99094.19;5089817;28;8810;-57
2021/12/26 02:18:47;;;;;;;;;1.00;1.00;;;;;-1.32;76.23;99094.28;5090490;28;9463;-57
2021/12/26 02:21:27;;;;;;;;;0.20;0.20;;;;;-1.34;75.89;99091.78;5090314;28;8923;-57
2021/12/26 02:24:00;;;;;;;;;0.00;0.00;;;;;-1.34;75.69;99093.53;5090055;28;8845;-57
2021/12/26 02:29:13;;;;;;;;;1.00;1.00;;;;;-1.34;76.21;99090.91;5088805;28;8832;-57
2021/12/26 02:31:41;;;;;;;;;0.00;0.00;;;;;-1.33;75.76;99092.59;5089544;28;8927;-56
2021/12/26 02:34:09;;;;;;;;;0.00;0.00;;;;;-1.31;76.05;99091.63;5090076;28;8860;-57
2021/12/26 02:36:37;;;;;;;;;0.40;0.40;;;;;-1.29;75.88;99088.94;5090064;28;8846;-57
2021/12/26 02:39:04;;;;;;;;;0.25;0.25;;;;;-1.29;76.11;99083.72;5047054;28;1227463;-57
2021/12/26 02:41:32;;;;;;;;;1.40;1.00;;;;;-1.26;76.40;99080.97;5090640;28;11430;-56
2021/12/26 02:44:00;;;;;;;;;1.00;1.00;;;;;-1.24;75.79;99076.50;5091864;28;8838;-57
2021/12/26 02:46:28;;;;;;;;;1.00;1.00;;;;;-1.23;75.81;99083.47;5089715;28;8828;-57
2021/12/26 02:48:56;;;;;;;;;0.00;0.00;;;;;-1.21;76.37;99079.00;5090176;28;8854;-57
2021/12/26 02:51:23;;;;;;;;;3.00;3.00;;;;;-1.21;76.29;99081.63;5089403;28;8814;-57
2021/12/26 02:53:51;;;;;;;;;0.00;0.00;;;;;-1.19;76.13;99075.41;5070042;28;8850;-57
2021/12/26 02:56:19;;;;;;;;;3.00;3.00;;;;;-1.17;75.97;99077.94;5087400;28;8836;-57
2021/12/26 02:58:47;;;;;;;;;0.00;0.00;;;;;-1.17;75.63;99067.47;5070707;28;8840;-57
2021/12/26 03:01:14;;;;;;;;;0.20;0.20;;;;;-1.16;76.38;99069.19;5085234;28;8845;-57
2021/12/26 03:03:43;;;;;;;;;1.40;1.40;;;;;-1.16;75.84;99071.81;5090770;28;8948;-56
2021/12/26 03:06:17;;;;;;;;;0.00;0.00;;;;;-1.16;75.68;99074.44;5090376;28;8846;-57
2021/12/26 03:08:46;;;;;;;;;2.20;2.20;;;;;-1.15;76.09;99076.94;5088328;28;8862;-56
2021/12/26 03:11:14;;;;;;;;;1.80;0.80;;;;;-1.11;75.94;99072.44;5088741;28;8977;-57
2021/12/26 03:13:42;;;;;;;;;0.40;0.40;;;;;-1.08;76.30;99077.53;5091529;28;8988;-57
2021/12/26 03:16:10;;;;;;;;;0.40;0.40;;;;;-1.06;76.01;99080.91;5087375;28;8834;-57
2021/12/26 03:18:38;;;;;;;;;1.00;0.60;;;;;-1.06;75.99;99071.28;5090920;28;8853;-57
2021/12/26 03:21:05;;;;;;;;;1.00;1.00;;;;;-1.03;76.20;99073.78;5090670;28;8838;-56
2021/12/26 03:23:33;;;;;;;;;0.20;0.20;;;;;-1.00;76.38;99072.78;5091527;28;8837;-57
2021/12/26 03:26:01;;;;;;;;;2.20;2.20;;;;;-0.97;76.23;99067.41;5090053;28;8826;-57
2021/12/26 03:28:29;;;;;;;;;0.60;0.60;;;;;-0.94;75.77;99065.50;5091071;28;8864;-57
2021/12/26 03:30:56;;;;;;;;;3.00;2.20;;;;;-0.90;75.95;99071.41;5087446;28;8877;-57
2021/12/26 03:33:25;;;;;;;;;1.00;1.00;;;;;-0.88;75.75;99059.13;5088157;28;8837;-57
2021/12/26 03:35:52;;;;;;;;;0.00;0.00;;;;;-0.84;75.69;99069.34;5089718;28;8857;-57
2021/12/26 03:38:23;;;;;;;;;0.00;0.00;;;;;-0.82;75.54;99069.28;5090801;28;8825;-57
2021/12/26 03:40:51;;;;;;;;;0.00;0.00;;;;;-0.82;75.78;99062.31;5073017;28;8838;-57
2021/12/26 03:43:19;;;;;;;;;0.20;0.20;;;;;-0.80;75.75;99065.69;5090312;28;8842;-57
2021/12/26 03:45:48;;;;;;;;;1.00;1.00;;;;;-0.78;75.80;99063.00;5090016;28;8870;-56
2021/12/26 03:48:16;;;;;;;;;0.60;0.00;;;;;-0.79;75.53;99062.16;5089209;28;8854;-57
2021/12/26 03:50:44;;;;;;;;;0.00;0.00;;;;;-0.78;75.33;99060.38;5087197;28;9600;-57
2021/12/26 03:53:12;;;;;;;;;0.00;0.00;;;;;-0.77;75.93;99054.25;5088945;28;8891;-56
2021/12/26 03:55:39;;;;;;;;;1.00;1.00;;;;;-0.76;75.58;99056.75;5090138;28;8826;-57
2021/12/26 03:58:07;;;;;;;;;0.40;0.40;;;;;-0.76;75.85;99055.94;5088796;28;8830;-56
2021/12/26 04:00:35;;;;;;;;;0.40;0.40;;;;;-0.76;75.71;99058.53;5088736;28;9488;-57
2021/12/26 04:03:03;;;;;;;;;0.60;0.60;;;;;-0.76;76.21;99059.38;5089378;28;8918;-57
2021/12/26 04:05:31;;;;;;;;;0.40;0.40;;;;;-0.76;76.01;99063.75;5090575;28;8850;-56
2021/12/26 04:07:58;;;;;;;;;1.00;1.00;;;;;-0.76;75.86;99061.16;5090314;28;8907;-57
2021/12/26 04:10:26;;;;;;;;;0.00;0.00;;;;;-0.72;75.80;99057.47;5090197;28;8914;-57
2021/12/26 04:12:55;;;;;;;;;1.80;1.80;;;;;-0.71;75.91;99057.38;5090151;28;8859;-57
2021/12/26 04:15:27;;;;;;;;;0.00;0.00;;;;;-0.69;75.96;99055.53;5089352;28;8948;-57
2021/12/26 04:17:57;;;;;;;;;0.40;0.40;;;;;-0.67;75.91;99053.72;5089593;28;9510;-57
2021/12/26 04:20:24;;;;;;;;;0.80;0.20;;;;;-0.65;75.59;99051.88;5089561;28;9515;-57
2021/12/26 04:22:52;;;;;;;;;0.00;0.00;;;;;-0.63;76.10;99054.41;5089219;28;8842;-57
2021/12/26 04:25:20;;;;;;;;;3.00;1.00;;;;;-0.62;76.16;99056.09;5088999;28;8838;-57
2021/12/26 04:27:48;;;;;;;;;0.20;0.00;;;;;-0.60;76.10;99059.47;5089990;28;8918;-57
2021/12/26 04:30:16;;;;;;;;;0.00;0.00;;;;;-0.59;75.84;99063.78;5089717;28;9601;-57
2021/12/26 04:32:44;;;;;;;;;1.00;0.00;;;;;-0.57;75.53;99061.94;5088820;28;8948;-57
2021/12/26 04:35:11;;;;;;;;;3.00;3.00;;;;;-0.55;75.87;99062.72;5088545;28;8838;-57
2021/12/26 04:37:39;;;;;;;;;1.00;1.00;;;;;-0.53;75.46;99063.50;5089073;28;8967;-57
2021/12/26 04:40:11;;;;;;;;;0.00;0.00;;;;;-0.53;75.81;99061.69;5088583;28;9687;-57
2021/12/26 04:42:40;;;;;;;;;1.00;0.20;;;;;-0.50;75.86;99068.56;5099040;28;9504;-57
2021/12/26 04:45:08;;;;;;;;;0.00;0.00;;;;;-0.47;75.86;99065.81;5108909;28;9562;-57
2021/12/26 04:47:36;;;;;;;;;1.00;1.00;;;;;-0.42;75.77;99066.41;5093761;28;8845;-57
2021/12/26 04:50:04;;;;;;;;;0.80;0.80;;;;;-0.41;75.45;99063.72;5092864;28;8834;-57
2021/12/26 04:52:32;;;;;;;;;4.00;1.00;;;;;-0.43;75.82;99064.72;5093836;28;8854;-57
2021/12/26 04:55:01;;;;;;;;;1.00;1.00;;;;;-0.41;75.83;99065.47;5091726;28;8838;-57
2021/12/26 04:57:29;;;;;;;;;3.00;3.00;;;;;-0.38;75.63;99075.81;5091007;28;8948;-57
2021/12/26 04:59:56;;;;;;;;;0.40;0.40;;;;;-0.40;75.41;99068.03;5091994;28;8860;-56
2021/12/26 05:02:25;;;;;;;;;1.00;0.40;;;;;-0.38;76.06;99070.56;5092612;28;8841;-57
2021/12/26 05:04:52;;;;;;;;;1.80;1.00;;;;;-0.38;75.83;99065.34;5090783;28;8838;-57
2021/12/26 05:07:20;;;;;;;;;1.00;1.00;;;;;-0.35;76.00;99054.72;5093167;28;8846;-57
2021/12/26 05:09:48;;;;;;;;;0.80;0.80;;;;;-0.32;75.93;99054.59;5092617;28;8860;-57
2021/12/26 05:12:16;;;;;;;;;0.60;0.60;;;;;-0.32;75.58;99058.03;5092582;28;9622;-57
2021/12/26 05:14:44;;;;;;;;;0.20;0.20;;;;;-0.31;75.74;99053.66;5092419;28;8852;-57
2021/12/26 05:17:11;;;;;;;;;1.00;0.80;;;;;-0.32;76.34;99055.41;5093444;28;8911;-57
2021/12/26 05:19:39;;;;;;;;;0.00;0.00;;;;;-0.34;75.55;99056.41;5091052;28;8826;-57
2021/12/26 05:22:07;;;;;;;;;1.00;1.00;;;;;-0.32;75.48;99049.34;5092818;28;8858;-57
2021/12/26 05:24:35;;;;;;;;;1.00;0.60;;;;;-0.28;75.96;99048.25;5091916;28;8957;-57
2021/12/26 05:27:03;;;;;;;;;0.00;0.00;;;;;-0.24;75.87;99048.03;5091610;28;8818;-57
2021/12/26 05:29:30;;;;;;;;;1.00;1.00;;;;;-0.22;75.05;99040.97;5092506;28;9549;-57
2021/12/26 05:31:58;;;;;;;;;1.00;1.00;;;;;-0.17;75.29;99040.72;5093243;28;8980;-57
2021/12/26 05:34:26;;;;;;;;;0.00;0.00;;;;;-0.15;75.87;99033.66;5090339;28;9214;-57
2021/12/26 05:36:54;;;;;;;;;1.80;1.00;;;;;-0.14;75.66;99035.34;5092588;28;8984;-57
2021/12/26 05:39:21;;;;;;;;;1.00;1.00;;;;;-0.14;75.45;99030.09;5089298;28;10170;-57
2021/12/26 05:41:49;;;;;;;;;0.00;0.00;;;;;-0.14;75.68;99030.09;5091281;28;8854;-57
2021/12/26 05:44:17;;;;;;;;;0.00;0.00;;;;;-0.13;75.78;99031.78;5093083;28;8872;-57
2021/12/26 05:46:45;;;;;;;;;1.40;1.40;;;;;-0.15;75.55;99028.41;5090358;28;9498;-57
2021/12/26 05:49:13;;;;;;;;;0.00;0.00;;;;;-0.15;74.98;99026.66;5091773;28;8853;-57
2021/12/26 05:51:42;;;;;;;;;0.00;0.00;;;;;-0.16;75.41;99027.56;5090293;28;8902;-57
2021/12/26 05:54:10;;;;;;;;;1.00;0.00;;;;;-0.18;75.07;99025.97;5072888;28;8850;-57
2021/12/26 05:56:38;;;;;;;;;1.00;1.00;;;;;-0.21;75.23;99016.50;5091752;28;8860;-57
2021/12/26 05:59:06;;;;;;;;;0.40;0.40;;;;;-0.23;75.89;99023.56;5092236;28;8950;-57
2021/12/26 06:01:34;;;;;;;;;1.00;0.60;;;;;-0.24;75.53;99021.88;5110648;28;8920;-56
2021/12/26 06:04:02;;;;;;;;;0.00;0.00;;;;;-0.21;76.08;99021.72;5101338;28;9470;-57
2021/12/26 06:06:30;;;;;;;;;0.00;0.00;;;;;-0.19;75.34;99019.03;5090727;28;8844;-56
2021/12/26 06:08:58;;;;;;;;;1.00;1.00;;;;;-0.19;75.70;99019.03;5091366;28;8838;-57
2021/12/26 06:11:26;;;;;;;;;0.40;0.40;;;;;-0.21;75.10;99013.88;5095707;28;8816;-57
2021/12/26 06:13:53;;;;;;;;;1.00;1.00;;;;;-0.20;75.61;99010.34;5112780;28;8954;-57
2021/12/26 06:16:21;;;;;;;;;1.80;1.80;;;;;-0.20;75.12;99010.34;5101857;28;8842;-57
2021/12/26 06:18:49;;;;;;;;;1.00;1.00;;;;;-0.20;75.32;99012.97;5090494;28;8837;-57
2021/12/26 06:21:17;;;;;;;;;0.60;0.60;;;;;-0.21;75.44;99007.78;5091589;28;8861;-57
2021/12/26 06:23:50;;;;;;;;;1.00;1.00;;;;;-0.20;75.07;99012.97;5092140;28;8834;-57
2021/12/26 06:26:18;;;;;;;;;0.00;0.00;;;;;-0.17;75.29;99012.78;5090979;28;8899;-57
2021/12/26 06:28:45;;;;;;;;;1.00;1.00;;;;;-0.16;75.24;99009.25;5091379;28;8850;-57
2021/12/26 06:31:13;;;;;;;;;0.40;0.00;;;;;-0.16;75.64;99014.47;5091268;28;8925;-57
2021/12/26 06:33:43;;;;;;;;;3.00;3.00;;;;;-0.15;75.06;99007.50;5091900;28;8844;-57
2021/12/26 06:36:11;;;;;;;;;1.00;1.00;;;;;-0.17;75.70;99017.19;5091308;28;8949;-57
2021/12/26 06:38:38;;;;;;;;;0.00;0.00;;;;;-0.18;75.76;99015.50;5091526;28;8864;-57
2021/12/26 06:41:12;;;;;;;;;0.60;0.60;;;;;-0.18;75.13;99010.28;5092280;28;8833;-57
2021/12/26 06:43:40;;;;;;;;;0.80;0.80;;;;;-0.16;75.18;99004.00;5090733;28;8980;-57
2021/12/26 06:46:08;;;;;;;;;0.40;0.40;;;;;-0.18;75.02;99002.44;5091349;28;8838;-57
2021/12/26 06:48:35;;;;;;;;;0.00;0.00;;;;;-0.19;75.38;99013.78;5090205;28;8846;-57
2021/12/26 06:51:03;;;;;;;;;0.00;0.00;;;;;-0.19;75.75;99000.72;5090334;28;8818;-57
2021/12/26 06:53:31;;;;;;;;;1.00;1.00;;;;;-0.16;75.35;99003.19;5091194;28;8829;-57
2021/12/26 06:55:59;;;;;;;;;2.60;1.40;;;;;-0.15;75.56;98999.63;5091770;28;8848;-57
2021/12/26 06:58:26;;;;;;;;;0.60;0.60;;;;;-0.14;75.90;98998.72;5091315;28;8944;-57
2021/12/26 07:00:54;;;;;;;;;1.80;0.80;;;;;-0.15;75.34;99000.50;5088888;28;8838;-57
2021/12/26 07:03:22;;;;;;;;;1.00;1.00;;;;;-0.14;75.21;98991.72;5092366;28;8818;-57
2021/12/26 07:05:50;;;;;;;;;0.60;0.00;;;;;-0.13;75.70;98991.63;5091032;28;8996;-57
2021/12/26 07:08:18;;;;;;;;;1.00;1.00;;;;;-0.14;75.33;98989.13;5091488;28;8850;-57
2021/12/26 07:10:45;;;;;;;;;1.00;1.00;;;;;-0.14;75.49;98990.88;5089871;28;8986;-57
2021/12/26 07:13:13;;;;;;;;;2.60;2.60;;;;;-0.13;75.43;98990.78;5090791;28;9651;-57
2021/12/26 07:15:41;;;;;;;;;1.00;1.00;;;;;-0.13;75.86;98994.25;5090958;28;8854;-57
2021/12/26 07:18:09;;;;;;;;;1.00;1.00;;;;;-0.12;75.39;98990.69;5090333;28;8844;-57
2021/12/26 07:20:37;;;;;;;;;0.00;0.00;;;;;-0.08;75.84;98997.47;5090274;28;9639;-57
2021/12/26 07:23:05;;;;;;;;;0.40;0.40;;;;;-0.05;75.66;99001.72;5091687;28;8830;-57
2021/12/26 07:25:33;;;;;;;;;1.00;1.00;;;;;-0.03;75.55;99006.88;5090356;28;9012;-57
2021/12/26 07:28:01;;;;;;;;;2.20;2.20;;;;;-0.07;75.40;99009.63;5090084;28;8862;-57
2021/12/26 07:30:28;;;;;;;;;1.00;1.00;;;;;-0.06;75.59;99020.94;5090472;28;8818;-57
2021/12/26 07:32:56;;;;;;;;;0.20;0.20;;;;;-0.08;75.64;99021.00;5090004;28;8956;-57
2021/12/26 07:35:24;;;;;;;;;1.00;1.00;;;;;-0.07;75.76;99019.25;5090163;28;8846;-57
2021/12/26 07:37:53;;;;;;;;;0.00;0.00;;;;;-0.08;75.84;99022.78;5089174;28;8837;-57
2021/12/26 07:40:21;;;;;;;;;1.00;1.00;;;;;-0.08;75.68;99020.16;5087662;28;8837;-57
2021/12/26 07:42:49;;;;;;;;;0.00;0.00;;;;;-0.07;75.63;99019.25;5089402;28;9001;-57
2021/12/26 07:45:16;;;;;;;;;3.20;1.00;;;;;-0.07;76.00;99022.69;5084054;28;8861;-57
2021/12/26 07:47:44;;;;;;;;;1.20;0.80;;;;;-0.06;75.94;99019.16;5085173;28;9570;-57
2021/12/26 07:50:12;;;;;;;;;0.60;0.60;;;;;-0.03;75.69;99019.94;5085484;28;9542;-57
2021/12/26 07:52:42;;;;;;;;;0.60;0.60;;;;;0.01;75.68;99023.16;5087201;28;8842;-57
2021/12/26 07:55:13;;;;;;;;;1.00;1.00;;;;;0.05;75.68;99023.84;5087454;28;8848;-57
2021/12/26 07:57:40;;;;;;;;;0.80;0.80;;;;;0.04;75.93;99023.00;5087634;28;8842;-57
2021/12/26 08:00:08;;;;;;;;;0.80;0.00;;;;;0.05;75.45;99019.47;5086817;28;8826;-57
2021/12/26 08:02:36;;;;;;;;;1.40;1.40;;;;;0.04;75.80;99020.41;5086380;28;8864;-57
2021/12/26 08:05:04;;;;;;;;;0.60;0.60;;;;;0.06;76.16;99021.16;5088961;28;8858;-57
2021/12/26 08:07:32;;;;;;;;;1.00;1.00;;;;;0.09;76.22;99017.53;5088265;28;8875;-57
2021/12/26 08:09:59;;;;;;;;;2.60;0.80;;;;;0.11;76.07;99013.06;5088696;28;9480;-57
2021/12/26 08:12:27;;;;;;;;;4.00;4.00;;;;;0.14;75.63;99018.97;5088976;28;8842;-57
2021/12/26 08:14:55;;;;;;;;;2.20;1.40;;;;;0.17;75.73;99023.22;5087520;28;8957;-57
2021/12/26 08:17:24;;;;;;;;;1.00;1.00;;;;;0.17;75.37;99023.22;5087154;28;8846;-57
2021/12/26 08:19:51;;;;;;;;;1.00;1.00;;;;;0.21;76.10;99029.94;5088325;28;8980;-57
2021/12/26 08:22:19;;;;;;;;;1.00;1.00;;;;;0.23;75.65;99021.09;5087469;28;8952;-57
2021/12/26 08:24:47;;;;;;;;;0.00;0.00;;;;;0.27;75.82;99022.63;5087647;28;8930;-57
2021/12/26 08:27:15;;;;;;;;;1.00;1.00;;;;;0.31;75.17;99024.16;5087679;28;9607;-57
2021/12/26 08:29:42;;;;;;;;;1.00;1.00;;;;;0.34;75.73;99020.53;5087862;28;8852;-57
2021/12/26 08:32:16;;;;;;;;;0.00;0.00;;;;;0.36;75.54;99009.06;5087183;28;8825;-57
2021/12/26 08:34:44;;;;;;;;;0.00;0.00;;;;;0.39;75.44;99006.25;5087150;28;8970;-57
2021/12/26 08:37:12;;;;;;;;;1.00;1.00;;;;;0.42;75.26;99003.50;5085957;28;8956;-57
2021/12/26 08:39:39;;;;;;;;;4.80;4.80;;;;;0.45;75.32;99015.53;5086794;28;8869;-57
2021/12/26 08:42:07;;;;;;;;;0.20;0.20;;;;;0.48;75.03;99005.75;5085351;28;8862;-57
2021/12/26 08:44:35;;;;;;;;;0.80;0.80;;;;;0.48;75.21;99003.13;5088208;28;8822;-57
2021/12/26 08:47:03;;;;;;;;;1.80;1.80;;;;;0.47;75.96;99001.44;5085400;28;8848;-57
2021/12/26 08:49:30;;;;;;;;;1.00;1.00;;;;;0.47;75.52;99004.06;5086702;28;8841;-57
2021/12/26 08:51:58;;;;;;;;;3.00;3.00;;;;;0.49;75.55;98998.75;5085974;28;8940;-57
2021/12/26 08:54:28;;;;;;;;;2.20;2.20;;;;;0.53;75.24;99001.13;5086812;28;8903;-57
2021/12/26 08:56:56;;;;;;;;;3.00;3.00;;;;;0.57;75.44;99000.03;5085272;28;8848;-57
2021/12/26 08:59:24;;;;;;;;;4.00;4.00;;;;;0.59;74.93;99006.03;5088999;28;9794;-57
2021/12/26 09:01:52;;;;;;;;;2.20;2.20;;;;;0.61;75.16;99013.81;5084855;28;8876;-57
2021/12/26 09:04:20;;;;;;;;;3.00;3.00;;;;;0.63;74.87;99007.53;5087819;28;8842;-57
2021/12/26 09:06:48;;;;;;;;;1.40;1.40;;;;;0.66;75.54;99010.00;5087657;28;8846;-57
2021/12/26 09:09:16;;;;;;;;;0.80;0.80;;;;;0.69;75.05;99020.31;5087133;28;9674;-57
2021/12/26 09:11:44;;;;;;;;;3.00;3.00;;;;;0.73;75.20;98998.28;5086756;28;8956;-57
2021/12/26 09:14:11;;;;;;;;;2.20;2.20;;;;;0.81;74.92;99003.94;5086291;28;8830;-57
2021/12/26 09:16:40;;;;;;;;;3.40;3.40;;;;;0.88;75.51;99007.91;5087294;28;8826;-57
2021/12/26 09:19:07;;;;;;;;;5.20;4.00;;;;;0.95;75.61;99014.50;5085894;28;8896;-57
2021/12/26 09:21:36;;;;;;;;;5.20;2.80;;;;;0.99;74.71;99008.13;5088162;28;8842;-57
2021/12/26 09:24:04;;;;;;;;;4.00;4.00;;;;;1.07;74.55;99015.56;5088835;28;8853;-57
2021/12/26 09:26:31;;;;;;;;;8.60;6.40;;;;;1.12;75.00;99029.25;5085378;28;8838;-57
2021/12/26 09:28:59;;;;;;;;;8.40;8.00;;;;;1.15;75.26;99011.56;5086968;28;8852;-57
2021/12/26 09:31:27;;;;;;;;;4.00;4.00;;;;;1.22;74.51;99012.91;5086832;28;8845;-58
2021/12/26 09:33:55;;;;;;;;;1.00;1.00;;;;;1.29;74.87;99018.66;5082803;28;8852;-58
2021/12/26 09:36:22;;;;;;;;;1.00;1.00;;;;;1.33;74.84;99012.31;5091961;28;8838;-58
2021/12/26 09:38:50;;;;;;;;;3.20;3.00;;;;;1.37;74.49;99016.44;5088732;28;8887;-57
2021/12/26 09:41:18;;;;;;;;;3.60;3.60;;;;;1.43;74.96;99016.94;5090358;28;8912;-58
2021/12/26 09:43:45;;;;;;;;;3.40;3.40;;;;;1.47;74.25;99015.84;5088309;28;9639;-58
2021/12/26 09:46:13;;;;;;;;;4.80;4.80;;;;;1.50;74.83;99007.78;5089037;28;8834;-58
2021/12/26 09:48:41;;;;;;;;;3.00;2.60;;;;;1.53;74.72;99010.22;5086317;28;9143;-58
2021/12/26 09:51:08;;;;;;;;;3.00;3.00;;;;;1.56;74.32;99015.28;5089315;28;8865;-58
2021/12/26 09:53:37;;;;;;;;;8.20;6.20;;;;;1.58;74.42;99010.78;5088429;28;8834;-58
2021/12/26 09:56:06;;;;;;;;;9.60;9.60;;;;;1.65;74.97;99009.50;5091070;28;8822;-58
2021/12/26 09:58:33;;;;;;;;;7.80;7.80;;;;;1.78;74.64;99007.84;5087913;28;8941;-58
2021/12/26 10:01:01;;;;;;;;;2.20;2.20;;;;;1.93;74.26;99009.56;5087486;28;8830;-58
2021/12/26 10:03:34;;;;;;;;;4.40;4.00;;;;;2.03;74.22;98997.56;5090493;28;8944;-59
2021/12/26 10:06:01;;;;;;;;;3.40;3.00;;;;;2.11;73.79;99000.56;5087596;28;8849;-58
2021/12/26 10:08:29;;;;;;;;;3.80;3.40;;;;;2.15;73.76;98991.59;5088571;28;8849;-58
2021/12/26 10:10:57;;;;;;;;;5.20;4.60;;;;;2.21;73.43;98996.44;5088338;28;8826;-58
2021/12/26 10:13:25;;;;;;;;;3.40;3.40;;;;;2.30;74.26;98998.53;5088133;28;8863;-58
2021/12/26 10:15:52;;;;;;;;;3.00;3.00;;;;;2.52;73.68;98985.75;5089612;28;8854;-58
2021/12/26 10:18:20;;;;;;;;;4.40;4.00;;;;;2.83;72.76;98982.88;5089221;28;9171;-58
2021/12/26 10:20:48;;;;;;;;;3.00;1.00;;;;;2.98;72.31;98989.78;5090934;28;8957;-58
2021/12/26 10:23:16;;;;;;;;;1.00;1.00;;;;;3.09;71.99;98982.03;5089235;28;8834;-58
2021/12/26 10:25:43;;;;;;;;;6.00;3.80;;;;;3.12;72.69;98986.25;5090778;28;8968;-58
2021/12/26 10:28:12;;;;;;;;;1.40;1.40;;;;;3.12;72.42;98986.25;5090168;28;8826;-58
2021/12/26 10:30:40;;;;;;;;;0.60;0.60;;;;;3.11;72.90;98993.28;5087441;28;8842;-58
2021/12/26 10:33:08;;;;;;;;;5.20;4.60;;;;;3.09;72.75;98981.19;5088355;28;8810;-58
2021/12/26 10:35:36;;;;;;;;;3.00;3.00;;;;;3.07;73.08;98977.78;5081269;28;9969;-58
2021/12/26 10:38:03;;;;;;;;;3.60;3.60;;;;;3.03;73.19;98961.38;5089991;28;8818;-58
2021/12/26 10:40:32;;;;;;;;;2.60;2.60;;;;;3.02;73.01;98958.88;5088965;28;8952;-58
2021/12/26 10:43:00;;;;;;;;;3.60;1.00;;;;;3.02;73.57;98959.69;5090300;28;9563;-58
2021/12/26 10:45:28;;;;;;;;;1.80;1.80;;;;;3.01;73.15;98958.00;5088724;28;8870;-58
2021/12/26 10:47:56;;;;;;;;;3.20;1.80;;;;;2.98;73.21;98955.59;5090075;28;8858;-58
2021/12/26 10:50:23;;;;;;;;;4.00;3.40;;;;;2.97;73.83;98964.44;5088576;28;8962;-58
2021/12/26 10:52:51;;;;;;;;;3.80;3.00;;;;;2.96;74.25;98957.47;5089791;28;8811;-59
2021/12/26 10:55:19;;;;;;;;;1.00;1.00;;;;;2.97;73.91;98959.16;5087596;28;8972;-58
2021/12/26 10:57:47;;;;;;;;;2.80;2.80;;;;;2.99;73.98;98948.53;5089181;28;8826;-59
2021/12/26 11:00:15;;;;;;;;;3.00;3.00;;;;;3.02;73.79;98949.19;5088525;28;9519;-59
2021/12/26 11:02:43;;;;;;;;;5.40;3.80;;;;;3.09;73.51;98952.28;5085798;28;8854;-59
2021/12/26 11:05:10;;;;;;;;;6.00;6.00;;;;;3.16;73.78;98951.75;5086298;28;8846;-58
2021/12/26 11:07:38;;;;;;;;;6.20;6.20;;;;;3.21;73.49;98941.78;5072488;28;8853;-59
2021/12/26 11:10:06;;;;;;;;;4.00;4.00;;;;;3.26;73.05;98952.00;5086565;28;8964;-59
2021/12/26 11:12:34;;;;;;;;;4.40;4.00;;;;;3.29;73.81;98944.75;5086948;28;8841;-59
2021/12/26 11:15:03;;;;;;;;;5.80;3.40;;;;;3.32;73.86;98952.44;5086899;28;8880;-59
2021/12/26 11:17:30;;;;;;;;;7.40;6.20;;;;;3.33;73.69;98948.84;5087863;28;8842;-59
2021/12/26 11:19:59;;;;;;;;;4.40;4.00;;;;;3.32;73.41;98954.22;5090637;28;8872;-59
2021/12/26 11:22:27;;;;;;;;;2.20;2.20;;;;;3.32;73.30;98949.78;5090593;28;8842;-59
2021/12/26 11:24:57;;;;;;;;;4.00;3.60;;;;;3.28;73.54;98945.69;5088220;28;8919;-59
2021/12/26 11:27:24;;;;;;;;;6.00;6.00;;;;;3.28;73.49;98940.44;5089727;28;8936;-59
2021/12/26 11:29:53;;;;;;;;;4.40;4.00;;;;;3.30;73.47;98938.53;5088367;28;8933;-59
2021/12/26 11:32:20;;;;;;;;;4.00;4.00;;;;;3.32;74.32;98935.81;5089210;28;8814;-59
2021/12/26 11:34:48;;;;;;;;;5.20;5.20;;;;;3.34;73.56;98934.75;5086866;28;8834;-59
2021/12/26 11:37:16;;;;;;;;;6.00;6.00;;;;;3.36;74.06;98938.13;5088533;28;8964;-58
2021/12/26 11:39:48;;;;;;;;;6.60;6.60;;;;;3.39;74.02;98934.47;5088545;28;8838;-59
2021/12/26 11:42:15;;;;;;;;;7.00;6.00;;;;;3.40;73.60;98939.59;5089276;28;8833;-59
2021/12/26 11:44:46;;;;;;;;;2.60;2.60;;;;;3.39;73.72;98932.66;5088957;28;8869;-59
2021/12/26 11:47:14;;;;;;;;;3.40;3.40;;;;;3.39;74.11;98937.91;5090112;28;8926;-59
2021/12/26 11:49:41;;;;;;;;;6.80;6.00;;;;;3.40;74.21;98933.50;5087925;28;8845;-59